createdAt,value
2023-03-04T00:00:43.213Z,456.00
2023-03-04T00:03:12.073Z,444.02
2023-03-04T00:05:43.020Z,450.02
2023-03-04T00:08:11.746Z,480.40
2023-03-04T00:10:40.268Z,406.80
2023-03-04T00:13:08.669Z,377.52
2023-03-04T00:15:38.727Z,520.97
2023-03-04T00:18:07.363Z,483.27
2023-03-04T00:20:35.781Z,573.58
2023-03-04T00:23:04.393Z,520.88
2023-03-04T00:25:33.542Z,508.98
2023-03-04T00:28:02.531Z,377.10
2023-03-04T00:30:31.043Z,462.00
2023-03-04T00:33:00.838Z,344.30
2023-03-04T00:35:29.205Z,446.35
2023-03-04T00:37:57.722Z,475.55
2023-03-04T00:40:26.305Z,494.92
2023-03-04T00:42:54.792Z,469.23
2023-03-04T00:45:23.309Z,317.52
2023-03-04T00:47:51.839Z,374.85
2023-03-04T00:50:21.885Z,476.10
2023-03-04T00:52:50.389Z,405.55
2023-03-04T00:55:18.904Z,282.42
2023-03-04T00:57:47.281Z,341.10
2023-03-04T01:00:16.724Z,396.95
2023-03-04T01:02:45.248Z,353.20
2023-03-04T01:05:14.033Z,408.73
2023-03-04T01:07:43.889Z,325.55
2023-03-04T01:10:14.400Z,528.33
2023-03-04T01:12:43.081Z,444.95
2023-03-04T01:15:12.944Z,473.98
2023-03-04T01:17:41.627Z,460.80
2023-03-04T01:20:12.503Z,317.25
2023-03-04T01:22:40.984Z,287.05
2023-03-04T01:25:11.690Z,494.77
2023-03-04T01:27:41.254Z,318.45
2023-03-04T01:30:11.041Z,318.25
2023-03-04T01:32:39.357Z,480.52
2023-03-04T01:35:08.549Z,419.77
2023-03-04T01:37:36.884Z,308.23
2023-03-04T01:40:06.100Z,410.92
2023-03-04T01:42:36.895Z,304.65
2023-03-04T01:45:07.496Z,416.13
2023-03-04T01:47:36.954Z,326.48
2023-03-04T01:50:08.688Z,404.00
2023-03-04T01:52:37.099Z,420.38
2023-03-04T01:55:10.983Z,359.80
2023-03-04T01:57:41.394Z,476.42
2023-03-04T02:00:24.831Z,251.77
2023-03-04T02:02:55.512Z,295.20
2023-03-04T02:05:24.796Z,320.83
2023-03-04T02:07:53.875Z,290.60
2023-03-04T02:10:22.742Z,411.00
2023-03-04T02:12:53.124Z,318.25
2023-03-04T02:15:21.794Z,289.33
2023-03-04T02:20:47.119Z,171.30
2023-03-04T02:23:19.172Z,342.63
2023-03-04T02:25:50.562Z,328.08
2023-03-04T02:28:20.557Z,270.60
2023-03-04T02:30:49.181Z,388.92
2023-03-04T02:33:19.027Z,148.43
2023-03-04T02:35:48.298Z,329.30
2023-03-04T02:38:16.855Z,282.75
2023-03-04T02:40:49.484Z,183.25
2023-03-04T02:43:19.472Z,219.10
2023-03-04T02:45:49.469Z,285.52
2023-03-04T02:48:23.942Z,393.40
2023-03-04T02:50:53.809Z,260.63
2023-03-04T02:53:23.096Z,177.20
2023-03-04T02:55:51.531Z,178.70
2023-03-04T02:58:21.420Z,435.10
2023-03-04T03:00:50.125Z,297.73
2023-03-04T03:03:18.559Z,274.33
2023-03-04T03:05:47.250Z,530.55
2023-03-04T03:08:15.660Z,319.08
2023-03-04T03:10:44.182Z,262.75
2023-03-04T03:13:12.611Z,506.90
2023-03-04T03:15:42.734Z,314.52
2023-03-04T03:18:11.550Z,426.52
2023-03-04T03:20:40.042Z,570.40
2023-03-04T03:23:08.483Z,334.33
2023-03-04T03:25:36.988Z,407.95
2023-03-04T03:28:05.650Z,236.68
2023-03-04T03:30:34.117Z,481.33
2023-03-04T03:33:03.953Z,234.88
2023-03-04T03:35:32.493Z,358.95
2023-03-04T03:38:01.016Z,343.80
2023-03-04T03:40:29.446Z,256.38
2023-03-04T03:42:57.950Z,262.63
2023-03-04T03:45:26.556Z,328.73
2023-03-04T03:47:54.967Z,341.25
2023-03-04T03:50:24.833Z,465.95
2023-03-04T03:52:53.247Z,450.90
2023-03-04T03:55:21.794Z,372.08
2023-03-04T03:57:50.314Z,346.98
2023-03-04T04:00:19.468Z,270.73
2023-03-04T04:02:48.100Z,290.85
2023-03-04T04:05:16.686Z,401.80
2023-03-04T04:07:46.463Z,359.98
2023-03-04T04:10:14.876Z,290.10
2023-03-04T04:12:43.271Z,283.80
2023-03-04T04:15:13.354Z,320.98
2023-03-04T04:17:43.158Z,295.80
2023-03-04T04:20:12.627Z,330.25
2023-03-04T04:22:41.120Z,361.50
2023-03-04T04:25:11.815Z,357.40
2023-03-04T04:27:40.403Z,327.23
2023-03-04T04:30:09.963Z,320.10
2023-03-04T04:32:38.337Z,400.70
2023-03-04T04:35:07.770Z,347.38
2023-03-04T04:37:36.276Z,352.38
2023-03-04T04:40:04.861Z,342.58
2023-03-04T04:42:34.998Z,392.20
2023-03-04T04:45:03.737Z,327.77
2023-03-04T04:47:32.092Z,322.67
2023-03-04T04:50:00.425Z,397.45
2023-03-04T04:52:28.833Z,341.20
2023-03-04T04:54:57.342Z,390.63
2023-03-04T04:57:25.825Z,403.70
2023-03-04T04:59:55.612Z,422.73
2023-03-04T05:02:23.988Z,364.40
2023-03-04T05:04:52.518Z,394.85
2023-03-04T05:07:20.912Z,374.90
2023-03-04T05:09:49.266Z,367.98
2023-03-04T05:12:17.821Z,383.95
2023-03-04T05:14:46.284Z,358.08
2023-03-04T05:17:16.207Z,356.60
2023-03-04T05:19:44.608Z,401.20
2023-03-04T05:22:13.121Z,350.55
2023-03-04T05:24:41.598Z,382.65
2023-03-04T05:27:10.051Z,378.85
2023-03-04T05:29:38.457Z,404.42
2023-03-04T05:32:07.243Z,410.20
2023-03-04T05:34:37.034Z,466.42
2023-03-04T05:37:05.562Z,396.55
2023-03-04T05:39:34.253Z,471.70
2023-03-04T05:42:02.901Z,425.70
2023-03-04T05:44:31.372Z,480.60
2023-03-04T05:46:59.815Z,372.58
2023-03-04T05:49:28.594Z,434.02
2023-03-04T05:51:58.698Z,455.63
2023-03-04T05:54:27.062Z,404.77
2023-03-04T05:56:55.658Z,450.88
2023-03-04T05:59:24.112Z,476.00
2023-03-04T06:01:52.507Z,444.05
2023-03-04T06:04:21.109Z,491.52
2023-03-04T06:06:49.735Z,498.15
2023-03-04T06:09:21.069Z,530.00
2023-03-04T06:11:49.541Z,515.08
2023-03-04T06:14:18.181Z,478.00
2023-03-04T06:16:46.907Z,478.15
2023-03-04T06:19:15.285Z,510.77
2023-03-04T06:21:43.757Z,469.85
2023-03-04T06:24:12.250Z,522.80
2023-03-04T06:26:42.015Z,507.73
2023-03-04T06:29:10.537Z,558.28
2023-03-04T06:31:39.858Z,506.75
2023-03-04T06:34:08.311Z,461.02
2023-03-04T06:36:36.986Z,471.85
2023-03-04T06:39:06.088Z,511.63
2023-03-04T06:41:34.920Z,489.85
2023-03-04T06:44:04.945Z,492.27
2023-03-04T06:46:35.286Z,512.58
2023-03-04T06:49:04.033Z,536.05
2023-03-04T06:51:32.490Z,483.20
2023-03-04T06:54:00.950Z,467.77
2023-03-04T06:56:29.464Z,413.30
2023-03-04T06:58:58.055Z,502.85
2023-03-04T07:01:29.974Z,372.60
2023-03-04T07:03:59.696Z,336.42
2023-03-04T07:06:29.657Z,359.83
2023-03-04T07:08:58.209Z,325.25
2023-03-04T07:11:27.117Z,347.33
2023-03-04T07:13:55.701Z,414.20
2023-03-04T07:16:25.172Z,319.30
2023-03-04T07:18:55.108Z,308.70
2023-03-04T07:21:23.839Z,336.52
2023-03-04T07:23:52.461Z,342.80
2023-03-04T07:26:21.518Z,293.33
2023-03-04T07:28:54.889Z,361.50
2023-03-04T07:31:27.633Z,303.52
2023-03-04T07:33:59.258Z,428.60
2023-03-04T07:36:28.267Z,362.90
2023-03-04T07:38:57.090Z,263.23
2023-03-04T07:41:29.269Z,364.55
2023-03-04T07:43:58.405Z,348.63
2023-03-04T07:46:27.289Z,178.93
2023-03-04T07:48:58.058Z,158.57
2023-03-04T07:51:28.275Z,219.73
2023-03-04T07:53:59.468Z,220.00
2023-03-04T07:56:30.705Z,284.05
2023-03-04T07:58:59.804Z,279.13
2023-03-04T08:01:30.479Z,248.13
2023-03-04T08:04:00.946Z,254.20
2023-03-04T08:06:29.812Z,192.98
2023-03-04T08:08:59.580Z,276.83
2023-03-04T08:11:28.949Z,310.27
2023-03-04T08:13:57.714Z,232.43
2023-03-04T08:16:27.140Z,249.32
2023-03-04T08:18:57.823Z,386.05
2023-03-04T08:21:28.600Z,191.13
2023-03-04T08:23:58.489Z,112.68
2023-03-04T08:26:29.368Z,146.15
2023-03-04T08:28:59.130Z,128.10
2023-03-04T08:31:27.728Z,193.35
2023-03-04T08:33:56.577Z,172.18
2023-03-04T08:36:26.420Z,194.13
2023-03-04T08:38:54.869Z,179.68
2023-03-04T08:41:25.585Z,264.77
2023-03-04T08:43:54.408Z,185.55
2023-03-04T08:46:23.202Z,167.85
2023-03-04T08:48:51.705Z,237.63
2023-03-04T08:51:20.454Z,140.60
2023-03-04T08:53:50.465Z,185.70
2023-03-04T08:56:19.579Z,181.10
2023-03-04T08:58:48.069Z,185.80
2023-03-04T09:01:17.297Z,164.38
2023-03-04T09:03:45.814Z,133.10
2023-03-04T09:06:16.293Z,195.75
2023-03-04T09:08:45.042Z,245.25
2023-03-04T09:11:15.682Z,197.85
2023-03-04T09:13:44.457Z,243.32
2023-03-04T09:16:14.366Z,179.25
2023-03-04T09:18:43.969Z,178.52
2023-03-04T09:21:12.879Z,173.43
2023-03-04T09:23:41.616Z,123.55
2023-03-04T09:26:20.777Z,177.90
2023-03-04T09:28:52.600Z,467.65
2023-03-04T09:31:22.193Z,157.57
2023-03-04T09:33:55.364Z,173.02
2023-03-04T09:36:28.799Z,151.85
2023-03-04T09:39:04.884Z,222.77
2023-03-04T09:41:48.627Z,186.65
2023-03-04T09:44:26.881Z,226.60
2023-03-04T09:47:02.167Z,264.80
2023-03-04T09:49:32.285Z,308.83
2023-03-04T09:52:10.714Z,149.32
2023-03-04T09:54:56.757Z,273.17
2023-03-04T09:57:52.995Z,178.77
2023-03-04T10:00:25.471Z,131.57
2023-03-04T10:03:12.770Z,244.15
2023-03-04T10:05:48.694Z,258.55
2023-03-04T10:08:38.312Z,157.82
2023-03-04T10:11:24.455Z,191.40
2023-03-04T10:14:01.081Z,232.90
2023-03-04T10:16:39.421Z,142.23
2023-03-04T10:19:24.931Z,255.77
2023-03-04T10:22:02.313Z,169.90
2023-03-04T10:24:34.631Z,90.32
2023-03-04T10:27:08.716Z,111.20
2023-03-04T10:29:38.899Z,114.47
2023-03-04T10:32:11.926Z,128.85
2023-03-04T10:34:59.125Z,182.30
2023-03-04T10:37:50.017Z,152.23
2023-03-04T10:40:32.315Z,210.88
2023-03-04T10:43:07.410Z,148.38
2023-03-04T10:45:44.809Z,111.18
2023-03-04T10:48:24.732Z,153.15
2023-03-04T10:50:53.478Z,211.18
2023-03-04T10:53:33.543Z,102.13
2023-03-04T10:56:03.353Z,149.98
2023-03-04T10:58:32.265Z,125.40
2023-03-04T11:01:08.236Z,152.88
2023-03-04T11:03:39.577Z,207.30
2023-03-04T11:06:17.351Z,308.13
2023-03-04T11:08:47.961Z,403.60
2023-03-04T11:11:26.661Z,299.17
2023-03-04T11:14:00.821Z,173.02
2023-03-04T11:16:35.018Z,350.50
2023-03-04T11:19:07.357Z,406.23
2023-03-04T11:21:40.338Z,377.52
2023-03-04T11:24:27.457Z,275.75
2023-03-04T11:27:00.519Z,273.75
2023-03-04T11:29:34.334Z,219.52
2023-03-04T11:32:10.339Z,341.85
2023-03-04T11:34:49.503Z,170.10
2023-03-04T11:37:22.798Z,136.98
2023-03-04T11:39:54.424Z,301.02
2023-03-04T11:42:30.449Z,209.13
2023-03-04T11:44:59.092Z,138.35
2023-03-04T11:47:48.953Z,301.05
2023-03-04T11:50:29.060Z,172.73
2023-03-04T11:53:11.228Z,223.05
2023-03-04T11:55:44.643Z,220.48
2023-03-04T12:02:05.338Z,167.98
2023-03-04T12:04:48.571Z,138.18
2023-03-04T12:07:30.053Z,247.30
2023-03-04T12:10:07.791Z,233.10
2023-03-04T12:12:53.300Z,210.68
2023-03-04T12:15:26.290Z,109.80
2023-03-04T12:18:03.117Z,383.40
2023-03-04T12:20:57.636Z,302.75
2023-03-04T12:23:42.099Z,174.98
2023-03-04T12:26:15.947Z,199.93
2023-03-04T12:28:53.276Z,251.55
2023-03-04T12:31:37.627Z,126.22
2023-03-04T12:34:34.713Z,276.85
2023-03-04T12:37:18.968Z,372.65
2023-03-04T12:39:59.254Z,175.10
2023-03-04T12:42:36.638Z,182.32
2023-03-04T12:45:14.606Z,242.60
2023-03-04T12:47:50.194Z,222.15
2023-03-04T12:50:33.057Z,325.10
2023-03-04T12:53:14.341Z,230.32
2023-03-04T12:55:46.002Z,223.65
2023-03-04T12:58:21.874Z,238.00
2023-03-04T13:01:02.377Z,148.50
2023-03-04T13:03:46.157Z,347.77
2023-03-04T13:06:28.077Z,206.02
2023-03-04T13:09:08.284Z,324.30
2023-03-04T13:12:04.126Z,181.07
2023-03-04T13:14:34.890Z,188.02
2023-03-04T13:17:19.590Z,145.32
2023-03-04T13:19:56.297Z,126.95
2023-03-04T13:22:53.495Z,120.65
2023-03-04T13:25:38.934Z,121.07
2023-03-04T13:28:25.584Z,225.25
2023-03-04T13:31:26.613Z,266.58
2023-03-04T13:34:03.430Z,146.50
2023-03-04T13:36:51.813Z,217.45
2023-03-04T13:39:33.394Z,119.20
2023-03-04T13:42:21.898Z,202.95
2023-03-04T13:45:01.467Z,171.98
2023-03-04T13:47:45.924Z,133.18
2023-03-04T13:50:40.332Z,321.02
2023-03-04T13:53:40.259Z,361.87
2023-03-04T13:56:39.496Z,124.20
2023-03-04T13:59:33.682Z,169.60
2023-03-04T14:02:09.872Z,192.75
2023-03-04T14:04:39.801Z,446.42
2023-03-04T14:07:24.369Z,129.10
2023-03-04T14:10:00.507Z,197.30
2023-03-04T14:12:31.012Z,146.02
2023-03-04T14:15:02.148Z,173.20
2023-03-04T14:17:33.405Z,261.58
2023-03-04T14:20:03.494Z,131.23
2023-03-04T14:22:33.792Z,158.02
2023-03-04T14:25:04.885Z,257.75
2023-03-04T14:27:36.257Z,115.22
2023-03-04T14:30:09.048Z,120.18
2023-03-04T14:32:37.712Z,220.57
2023-03-04T14:35:08.930Z,117.75
2023-03-04T14:37:44.569Z,219.80
2023-03-04T14:40:21.529Z,115.78
2023-03-04T14:42:53.700Z,117.78
2023-03-04T14:45:24.700Z,107.63
2023-03-04T14:47:55.665Z,139.20
2023-03-04T14:50:24.764Z,134.70
2023-03-04T14:53:06.200Z,187.82
2023-03-04T14:55:34.833Z,115.45
2023-03-04T14:58:11.936Z,115.10
2023-03-04T15:00:43.147Z,123.00
2023-03-04T15:03:22.046Z,220.10
2023-03-04T15:05:52.782Z,293.48
2023-03-04T15:08:27.547Z,185.43
2023-03-04T15:13:39.689Z,125.82
2023-03-04T15:16:10.197Z,110.70
2023-03-04T15:18:40.567Z,98.50
2023-03-04T15:21:32.932Z,143.95
2023-03-04T15:24:22.695Z,161.57
2023-03-04T15:26:51.582Z,119.55
2023-03-04T15:29:28.252Z,165.07
2023-03-04T15:32:04.759Z,121.00
2023-03-04T15:34:33.238Z,106.63
2023-03-04T15:37:02.771Z,233.30
2023-03-04T15:39:35.649Z,167.38
2023-03-04T15:42:04.532Z,179.93
2023-03-04T15:44:46.542Z,98.93
2023-03-04T15:47:23.489Z,254.93
2023-03-04T15:53:15.155Z,96.80
2023-03-04T16:02:07.177Z,171.10
2023-03-04T16:04:45.234Z,172.38
2023-03-04T16:07:50.180Z,116.43
2023-03-04T16:10:34.359Z,161.55
2023-03-04T16:13:03.153Z,132.38
2023-03-04T16:15:32.628Z,117.13
2023-03-04T16:18:04.064Z,236.43
2023-03-04T16:21:06.149Z,120.57
2023-03-04T16:23:40.669Z,308.65
2023-03-04T16:26:14.477Z,135.02
2023-03-04T16:28:47.171Z,124.95
2023-03-04T16:31:16.867Z,115.63
2023-03-04T16:33:46.626Z,109.22
2023-03-04T16:36:20.170Z,135.50
2023-03-04T16:38:49.795Z,219.85
2023-03-04T16:41:22.159Z,130.70
2023-03-04T16:43:51.909Z,289.05
2023-03-04T16:46:21.403Z,111.28
2023-03-04T16:48:52.644Z,147.88
2023-03-04T16:51:24.036Z,124.30
2023-03-04T16:53:54.865Z,126.75
2023-03-04T16:56:23.872Z,183.45
2023-03-04T16:58:58.887Z,367.25
2023-03-04T17:01:29.030Z,339.80
2023-03-04T17:03:57.918Z,294.27
2023-03-04T17:06:30.974Z,284.85
2023-03-04T17:09:00.948Z,373.48
2023-03-04T17:11:29.356Z,217.02
2023-03-04T17:13:57.949Z,266.23
2023-03-04T17:16:26.609Z,323.08
2023-03-04T17:18:55.392Z,380.85
2023-03-04T17:21:26.242Z,296.05
2023-03-04T17:23:56.610Z,265.67
2023-03-04T17:26:25.320Z,213.40
2023-03-04T17:28:54.461Z,236.20
2023-03-04T17:31:33.481Z,217.05
2023-03-04T17:34:10.642Z,240.95
2023-03-04T17:36:43.781Z,422.95
2023-03-04T17:39:21.286Z,197.93
2023-03-04T17:42:01.209Z,292.85
2023-03-04T17:44:37.771Z,335.27
2023-03-04T17:47:08.407Z,104.10
2023-03-04T17:49:37.966Z,142.65
2023-03-04T17:52:07.549Z,327.60
2023-03-04T17:54:44.572Z,179.18
2023-03-04T17:57:13.797Z,282.00
2023-03-04T17:59:49.943Z,246.73
2023-03-04T18:02:43.088Z,254.05
2023-03-04T18:05:11.986Z,159.60
2023-03-04T18:07:40.563Z,160.98
2023-03-04T18:10:20.414Z,92.93
2023-03-04T18:12:55.127Z,256.25
2023-03-04T18:18:07.362Z,141.93
2023-03-04T18:20:36.438Z,82.80
2023-03-04T18:23:21.415Z,234.65
2023-03-04T18:41:58.165Z,240.00
2023-03-04T18:44:27.187Z,99.75
2023-03-04T18:46:58.440Z,279.77
2023-03-04T18:49:27.261Z,318.10
2023-03-04T18:51:56.252Z,349.25
2023-03-04T18:54:24.912Z,297.48
2023-03-04T18:56:55.746Z,241.90
2023-03-04T19:00:00.675Z,396.95
2023-03-04T19:02:52.404Z,230.15
2023-03-04T19:05:22.478Z,285.33
2023-03-04T19:07:52.077Z,187.75
2023-03-04T19:10:21.630Z,190.40
2023-03-04T19:12:50.902Z,171.60
2023-03-04T19:15:25.038Z,249.27
2023-03-04T19:17:54.592Z,106.93
2023-03-04T19:20:23.623Z,201.07
2023-03-04T19:22:52.843Z,265.30
2023-03-04T19:25:21.981Z,369.15
2023-03-04T19:27:52.135Z,361.15
2023-03-04T19:30:22.933Z,340.75
2023-03-04T19:32:51.524Z,253.02
2023-03-04T19:35:22.154Z,175.10
2023-03-04T19:37:51.062Z,397.65
2023-03-04T19:40:25.371Z,99.15
2023-03-04T19:42:55.784Z,141.70
2023-03-04T19:45:27.886Z,242.77
2023-03-04T19:47:57.210Z,160.13
2023-03-04T19:50:26.895Z,269.88
2023-03-04T19:52:55.671Z,338.45
2023-03-04T19:55:25.242Z,295.83
2023-03-04T19:57:54.316Z,221.00
2023-03-04T20:00:24.985Z,286.17
2023-03-04T20:02:53.933Z,298.88
2023-03-04T20:05:23.371Z,279.63
2023-03-04T20:07:52.241Z,184.18
2023-03-04T20:10:21.177Z,215.00
2023-03-04T20:12:49.913Z,262.83
2023-03-04T20:15:18.952Z,308.35
2023-03-04T20:17:52.121Z,272.83
2023-03-04T20:20:21.200Z,253.25
2023-03-04T20:25:57.403Z,144.27
2023-03-04T20:28:33.751Z,184.93
2023-03-04T20:31:27.072Z,254.20
2023-03-04T20:34:46.209Z,130.02
2023-03-04T20:37:14.805Z,251.57
2023-03-04T20:39:48.151Z,280.90
2023-03-04T20:42:23.388Z,327.48
2023-03-04T20:44:51.918Z,261.67
2023-03-04T20:47:21.063Z,295.33
2023-03-04T20:49:54.966Z,310.58
2023-03-04T20:52:58.351Z,253.77
2023-03-04T20:55:15.050Z,281.58
2023-03-04T20:57:43.564Z,305.45
2023-03-04T21:00:13.207Z,264.15
2023-03-04T21:02:41.691Z,215.70
2023-03-04T21:05:12.039Z,343.88
2023-03-04T21:07:40.396Z,102.78
2023-03-04T21:10:14.013Z,298.10
2023-03-04T21:12:43.191Z,286.33
2023-03-04T21:15:13.296Z,293.67
2023-03-04T21:17:42.051Z,296.65
2023-03-04T21:20:15.198Z,258.80
2023-03-04T21:22:43.593Z,203.18
2023-03-04T21:25:12.213Z,156.45
2023-03-04T21:27:42.796Z,298.92
2023-03-04T21:30:12.807Z,204.05
2023-03-04T21:32:41.376Z,177.27
2023-03-04T21:35:14.345Z,236.77
2023-03-04T21:37:43.138Z,304.50
2023-03-04T21:40:14.110Z,188.60
2023-03-04T21:42:42.682Z,199.18
2023-03-04T21:45:12.142Z,332.73
2023-03-04T21:47:48.435Z,323.52
2023-03-04T21:50:18.783Z,333.00
2023-03-04T21:52:47.683Z,154.88
2023-03-04T21:55:19.455Z,152.23
2023-03-04T21:57:48.305Z,315.20
2023-03-04T22:00:17.294Z,333.15
2023-03-04T22:02:47.046Z,309.85
2023-03-04T22:05:19.012Z,141.68
2023-03-04T22:07:48.017Z,172.02
2023-03-04T22:10:17.853Z,260.67
2023-03-04T22:12:46.579Z,330.25
2023-03-04T22:15:15.416Z,316.27
2023-03-04T22:17:45.574Z,189.98
2023-03-04T22:20:15.536Z,276.73
2023-03-04T22:22:45.493Z,277.20
2023-03-04T22:25:13.951Z,238.90
2023-03-04T22:27:42.325Z,316.00
2023-03-04T22:30:12.023Z,190.57
2023-03-04T22:32:40.634Z,361.52
2023-03-04T22:35:10.692Z,290.55
2023-03-04T22:37:39.143Z,128.88
2023-03-04T22:40:11.505Z,226.68
2023-03-04T22:42:39.931Z,230.57
2023-03-04T22:45:09.672Z,331.15
2023-03-04T22:47:38.253Z,184.15
2023-03-04T22:50:07.996Z,259.95
2023-03-04T22:52:36.465Z,305.10
2023-03-04T22:55:05.284Z,315.17
2023-03-04T22:57:35.428Z,296.23
2023-03-04T23:00:06.365Z,265.38
2023-03-04T23:02:34.914Z,269.15
2023-03-04T23:05:03.529Z,181.48
2023-03-04T23:07:32.118Z,297.13
2023-03-04T23:10:00.610Z,319.10
2023-03-04T23:12:29.146Z,312.27
2023-03-04T23:14:59.882Z,318.73
2023-03-04T23:17:28.596Z,303.00
2023-03-04T23:19:57.038Z,264.85
2023-03-04T23:22:25.485Z,337.08
2023-03-04T23:24:53.857Z,273.77
2023-03-04T23:27:22.261Z,272.02
2023-03-04T23:29:50.904Z,304.23
2023-03-04T23:32:20.704Z,295.83
2023-03-04T23:34:53.132Z,319.77
2023-03-04T23:37:22.530Z,288.88
2023-03-04T23:39:51.146Z,266.52
2023-03-04T23:42:19.500Z,258.70
2023-03-04T23:44:47.877Z,385.75
2023-03-04T23:47:16.526Z,359.50
2023-03-04T23:49:46.352Z,285.23
2023-03-04T23:52:14.917Z,296.05
2023-03-04T23:54:43.486Z,280.83
2023-03-04T23:57:11.883Z,348.77
2023-03-04T23:59:40.272Z,294.25
